Weather observations for the past three days for
Waco, Mc Gregor Executive Airport
Imperial (Metric)
Date Time (cdt) Wind (mph) Vis. (mi.) Weather Sky Cond. Temperature (ºF) Relative Humidity Wind Chill (°F) Heat Index (°F) Pressure Precipitation (in)
Air Dwpt 6 hour altimeter (in) sea level (mb) 1 hr 3 hr 6 hr
Max. Min.
31 11:56 S 12 10.00 Fair CLR 95 68 41% 100 30.05 1016.9
31 10:56 SE 7 10.00 Fair CLR 90 71.1 54% 96 30.06 1016.9
31 09:56 S 7 10.00 Fair CLR 87.1 73.9 65% 95 30.05 1016.7
31 08:56 S 7 10.00 Fair CLR 82 75 79% 89 30.04 1016.5
31 07:56 S 3 10.00 Fair CLR 78.1 73.9 87% 81 30.03 1015.9
31 06:56 S 5 10.00 Fair CLR 75.9 73 84 75.9 91% 76 30.01 1015.4
31 05:56 S 8 10.00 Fair CLR 77 73 88% 78 29.99 1014.8
31 04:56 S 9 10.00 Fair CLR 77 71.1 82% 79 30 1014.8
31 03:56 S 8 10.00 Fair CLR 78.1 70 76% 80 29.99 1014.5
31 02:56 S 7 10.00 Fair CLR 80.1 70 71% 83 29.99 1014.7
31 01:56 S 9 10.00 Fair CLR 82.9 70 65% 87 29.99 1014.8
31 00:56 S 9 10.00 Fair CLR 84 69.1 97 82.9 61% 88 29.99 1014.7
30 23:56 S 10 10.00 Fair CLR 84 66 55% 86 29.99 1014.4
30 22:56 S 9 10.00 Fair CLR 84.9 64 50% 86 29.97 1014.0
30 21:56 SE 5 10.00 Fair CLR 84 64 51% 85 29.96 1013.5
30 20:56 SE 6 10.00 Fair CLR 88 63 43% 89 29.93 1012.8
30 19:56 SE 9 10.00 Fair CLR 93 63 37% 94 29.92 1012.3
30 18:56 SE 9 10.00 Fair CLR 97 62.1 100.9 96.1 32% 98 29.92 1012.2
30 17:56 S 13 10.00 Fair CLR 97 63 33% 99 29.92 1012.2
30 16:56 S 16 G 22 10.00 A Few Clouds FEW080 100.9 64 30% 104 29.92 1012.5
30 15:56 S 8 G 17 10.00 Fair CLR 100 62.1 29% 102 29.94 1013.1
30 14:56 S 9 10.00 Fair CLR 100 62.1 29% 102 29.97 1013.8
30 13:56 S 8 G 20 10.00 Fair CLR 98.1 63 32% 100 30 1014.8
30 12:56 S 9 G 17 10.00 Fair CLR 95 66.9 97 75 40% 99 30.02 1015.9
30 11:56 S 9 10.00 Fair CLR 93.9 69.1 44% 99 30.05 1016.6
30 10:56 S 12 10.00 Fair CLR 91 70 50% 97 30.06 1016.9
30 09:56 S 12 10.00 Fair CLR 87.1 71.1 59% 93 30.06 1016.9
30 08:56 S 6 10.00 A Few Clouds FEW001 81 72 74% 85 30.05 1016.8
30 07:56 S 6 10.00 Fair CLR 77 71.1 82% 79 30.04 1016.3
30 06:56 S 3 10.00 Fair CLR 75.9 70 84.9 75.9 82% 77 30.02 1015.6
30 05:56 S 7 10.00 Fair CLR 78.1 71.1 79% 80 30 1014.9
30 04:56 S 6 10.00 Fair CLR 79 71.1 77% 82 30 1014.8
30 03:56 S 7 10.00 Fair CLR 81 72 74% 85 30 1014.9
30 02:56 S 10 10.00 Fair CLR 82 72 72% 87 29.99 1014.8
30 01:56 S 9 10.00 Fair CLR 82.9 72 70% 88 30 1014.9
30 00:56 S 10 10.00 Fair CLR 84.9 70 98.1 84 61% 89 30 1015.0
29 23:56 S 9 10.00 Fair CLR 84 66 55% 86 29.99 1014.6
29 22:56 S 7 10.00 Fair CLR 84.9 66 53% 87 30 1014.7
29 21:56 S 6 10.00 Fair CLR 87.1 66 50% 89 29.99 1014.6
29 20:56 SE 6 10.00 Fair CLR 90 66 45% 93 29.96 1013.9
29 19:56 SE 8 10.00 Fair CLR 93.9 64.9 38% 96 29.95 1013.3
29 18:56 SE 10 10.00 Fair CLR 98.1 64.9 100.9 97 34% 101 29.95 1013.3
29 17:56 SE 15 10.00 Fair CLR 100 64 31% 103 29.95 1013.2
29 16:56 S 12 10.00 A Few Clouds FEW085 99 63 31% 101 29.96 1013.7
29 15:56 S 9 10.00 Fair CLR 100.9 64.9 31% 105 29.98 1014.3
29 14:56 SE 10 G 20 10.00 Fair CLR 99 64.9 33% 102 30.01 1015.3
29 13:56 SE 12 10.00 Fair CLR 99 66.9 35% 104 30.04 1016.2
29 12:56 S 8 10.00 Fair CLR 97 70 97 71.1 42% 104 30.06 1016.9
29 11:56 S 10 10.00 Fair CLR 93.9 70 46% 100 30.08 1017.6
29 10:56 Vrbl 5 10.00 Fair CLR 91 72 54% 99 30.08 1017.8
29 09:56 Calm 10.00 Fair CLR 84 72 67% 90 30.09 1018.0
29 08:56 SW 3 10.00 Fair CLR 79 71.1 77% 82 30.08 1018.1
29 07:56 S 6 10.00 Fair CLR 73 70 90% 30.07 1017.6
29 06:56 S 5 10.00 Fair CLR 71.1 69.1 78.1 71.1 94% 30.06 1017.2
29 05:56 S 3 10.00 Fair CLR 72 69.1 91% 30.06 1017.0
29 04:56 Calm 10.00 Fair CLR 73 69.1 87% 30.06 1016.9
29 03:56 Calm 10.00 Fair CLR 73.9 68 82% 30.05 1016.7
29 02:56 S 5 10.00 Fair CLR 75 68 79% 76 30.05 1016.8
29 01:56 SE 3 10.00 Fair CLR 75.9 69.1 79% 77 30.05 1016.8
29 00:56 S 6 10.00 Fair CLR 78.1 68 99 78.1 71% 80 30.04 1016.5
28 23:56 S 3 10.00 Fair CLR 79 68 69% 81 30.04 1016.4
28 22:56 SW 5 10.00 Fair CLR 81 68 65% 84 30.03 1016.1
28 21:56 S 8 10.00 Fair CLR 82.9 69.1 63% 87 30.01 1015.5
28 20:56 S 14 G 28 10.00 Fair CLR 84 70 63% 88 29.99 1014.9
28 19:56 SE 14 10.00 Fair CLR 93.9 68 43% 98 29.97 1014.0
28 18:56 E 9 10.00 Fair CLR 99 63 102 95 31% 101 29.95 1013.1
28 17:56 E 10 10.00 A Few Clouds FEW090 100 63 30% 102 29.95 1013.1
28 16:56 E 7 10.00 Fair CLR 100.9 64 30% 104 29.95 1013.2
28 15:56 Vrbl 3 10.00 A Few Clouds FEW070 100 66 33% 104 29.98 1014.1
28 14:56 E 10 10.00 Fair CLR 99 66.9 35% 104 30.02 1015.7
28 13:56 N 8 10.00 Fair CLR 97 70 42% 104 30.04 1016.4
28 12:56 NE 13 10.00 Fair CLR 95 71.1 96.1 77 46% 102 30.06 1017.0
Date Time (cdt) Wind (mph) Vis. (mi.) Weather Sky Cond. Air Dwpt Max. Min. Relative Humidity Wind Chill (°F) Heat Index (°F) altimeter (in) sea level (mb) 1 hr 3 hr 6 hr
6 hour
Temperature (ºF) Pressure Precipitation (in)